createdAt,value
2019-03-11T00:00:01.694Z,11.53
2019-03-11T00:02:35.187Z,15.53
2019-03-11T00:05:08.550Z,17.20
2019-03-11T00:07:40.303Z,11.70
2019-03-11T00:10:12.280Z,4.93
2019-03-11T00:12:44.001Z,6.13
2019-03-11T00:15:15.827Z,5.77
2019-03-11T00:17:47.563Z,8.40
2019-03-11T00:20:19.399Z,4.03
2019-03-11T00:22:51.150Z,6.23
2019-03-11T00:25:22.838Z,6.10
2019-03-11T00:27:54.616Z,5.93
2019-03-11T00:30:26.328Z,7.50
2019-03-11T00:32:58.386Z,4.40
2019-03-11T00:35:30.062Z,2.63
2019-03-11T00:38:01.836Z,3.10
2019-03-11T00:40:33.654Z,4.20
2019-03-11T00:43:05.377Z,3.70
2019-03-11T00:45:36.966Z,4.17
2019-03-11T00:48:08.687Z,4.80
2019-03-11T00:50:40.630Z,4.17
2019-03-11T00:53:12.433Z,5.93
2019-03-11T00:55:45.419Z,4.20
2019-03-11T00:58:17.538Z,2.80
2019-03-11T01:00:49.385Z,2.50
2019-03-11T01:03:21.022Z,3.27
2019-03-11T01:05:52.868Z,2.67
2019-03-11T01:08:24.730Z,3.80
2019-03-11T01:10:56.414Z,3.67
2019-03-11T01:13:28.053Z,4.33
2019-03-11T01:16:00.953Z,4.50
2019-03-11T01:18:32.720Z,3.63
2019-03-11T01:21:04.480Z,5.30
2019-03-11T01:23:36.202Z,7.43
2019-03-11T01:26:07.878Z,6.03
2019-03-11T01:28:39.705Z,15.80
2019-03-11T01:31:11.531Z,8.57
2019-03-11T01:33:43.508Z,7.80
2019-03-11T01:36:15.299Z,9.80
2019-03-11T01:38:47.174Z,5.20
2019-03-11T01:41:18.890Z,4.47
2019-03-11T01:43:50.661Z,2.83
2019-03-11T01:46:22.330Z,3.20
2019-03-11T01:48:54.008Z,5.53
2019-03-11T01:51:25.867Z,4.67
2019-03-11T01:53:57.540Z,4.17
2019-03-11T01:56:29.174Z,3.10
2019-03-11T01:59:00.922Z,5.70
2019-03-11T02:01:32.541Z,3.50
2019-03-11T02:04:04.202Z,4.23
2019-03-11T02:06:35.857Z,3.60
2019-03-11T02:09:08.087Z,3.53
2019-03-11T02:11:39.922Z,3.97
2019-03-11T02:14:11.790Z,6.67
2019-03-11T02:16:43.476Z,5.97
2019-03-11T02:19:15.252Z,4.10
2019-03-11T02:21:47.122Z,6.53
2019-03-11T02:24:18.789Z,5.67
2019-03-11T02:26:50.573Z,6.70
2019-03-11T02:29:23.352Z,4.23
2019-03-11T02:31:55.023Z,3.70
2019-03-11T02:34:27.041Z,2.63
2019-03-11T02:36:58.673Z,5.07
2019-03-11T02:39:30.353Z,5.43
2019-03-11T02:42:01.965Z,5.80
2019-03-11T02:44:34.223Z,5.80
2019-03-11T02:47:06.113Z,5.30
2019-03-11T02:49:37.656Z,4.57
2019-03-11T02:52:09.455Z,1.93
2019-03-11T02:54:41.212Z,5.13
2019-03-11T02:57:12.868Z,5.40
2019-03-11T02:59:44.541Z,5.30
2019-03-11T03:02:46.251Z,2.07
2019-03-11T03:05:25.524Z,4.43
2019-03-11T03:07:57.677Z,3.83
2019-03-11T03:10:29.460Z,5.30
2019-03-11T03:13:01.064Z,4.33
2019-03-11T03:15:32.741Z,3.50
2019-03-11T03:18:04.363Z,5.13
2019-03-11T03:20:36.198Z,4.40
2019-03-11T03:23:07.846Z,5.00
2019-03-11T03:25:39.391Z,5.60
2019-03-11T03:28:11.196Z,6.10
2019-03-11T03:30:42.855Z,3.03
2019-03-11T03:33:14.832Z,5.10
2019-03-11T03:35:46.649Z,4.50
2019-03-11T03:38:29.406Z,4.77
2019-03-11T03:40:51.582Z,5.53
2019-03-11T03:43:23.520Z,6.03
2019-03-11T03:45:55.209Z,4.27
2019-03-11T03:48:27.049Z,6.77
2019-03-11T03:50:58.885Z,6.93
2019-03-11T03:53:30.620Z,6.87
2019-03-11T03:56:02.662Z,7.50
2019-03-11T03:58:34.395Z,5.97
2019-03-11T04:01:06.103Z,5.20
2019-03-11T04:03:38.004Z,8.80
2019-03-11T04:06:09.757Z,10.03
2019-03-11T04:08:41.768Z,9.40
2019-03-11T04:11:13.555Z,8.03
2019-03-11T04:13:50.102Z,6.30
2019-03-11T04:16:22.063Z,9.77
2019-03-11T04:18:58.332Z,11.07
2019-03-11T04:21:30.191Z,11.60
2019-03-11T04:24:01.987Z,11.73
2019-03-11T04:26:33.960Z,7.50
2019-03-11T04:29:06.313Z,11.50
2019-03-11T04:31:37.946Z,11.60
2019-03-11T04:34:10.077Z,10.37
2019-03-11T04:36:41.963Z,8.43
2019-03-11T04:39:13.684Z,10.50
2019-03-11T04:41:45.496Z,9.90
2019-03-11T04:44:18.706Z,7.87
2019-03-11T04:46:51.178Z,9.13
2019-03-11T04:49:22.865Z,9.30
2019-03-11T04:51:54.710Z,8.60
2019-03-11T04:54:26.543Z,9.30
2019-03-11T04:56:58.101Z,8.53
2019-03-11T04:59:30.106Z,9.13
2019-03-11T05:02:02.020Z,8.73
2019-03-11T05:04:38.182Z,10.43
2019-03-11T05:07:10.215Z,11.20
2019-03-11T05:09:42.162Z,11.37
2019-03-11T05:12:14.450Z,12.00
2019-03-11T05:14:46.539Z,6.17
2019-03-11T05:17:18.651Z,10.93
2019-03-11T05:19:50.441Z,8.03
2019-03-11T05:22:22.252Z,11.83
2019-03-11T05:24:53.918Z,12.20
2019-03-11T05:27:26.074Z,7.27
2019-03-11T05:29:59.123Z,6.20
2019-03-11T05:32:30.864Z,10.03
2019-03-11T05:35:02.731Z,11.33
2019-03-11T05:37:34.647Z,10.73
2019-03-11T05:40:06.490Z,10.37
2019-03-11T05:42:38.281Z,10.60
2019-03-11T05:45:11.555Z,11.07
2019-03-11T05:47:45.301Z,10.30
2019-03-11T05:50:17.145Z,8.80
2019-03-11T05:52:50.178Z,8.33
2019-03-11T05:55:22.192Z,7.97
2019-03-11T05:57:54.252Z,9.03
2019-03-11T06:00:30.453Z,8.07
2019-03-11T06:03:04.208Z,5.43
2019-03-11T06:05:36.411Z,8.40
2019-03-11T06:08:10.154Z,9.50
2019-03-11T06:10:43.528Z,5.23
2019-03-11T06:13:15.278Z,6.07
2019-03-11T06:15:47.334Z,6.40
2019-03-11T06:18:38.378Z,7.20
2019-03-11T06:21:36.956Z,6.23
2019-03-11T06:24:08.839Z,5.83
2019-03-11T06:26:42.098Z,6.90
2019-03-11T06:29:13.942Z,6.87
2019-03-11T06:31:47.287Z,6.50
2019-03-11T06:34:19.540Z,5.50
2019-03-11T06:36:54.248Z,6.13
2019-03-11T06:39:26.514Z,6.23
2019-03-11T06:42:01.535Z,6.87
2019-03-11T06:44:35.645Z,8.17
2019-03-11T06:47:07.994Z,6.03
2019-03-11T06:49:41.615Z,5.37
2019-03-11T06:52:14.026Z,4.03
2019-03-11T06:54:46.186Z,4.50
2019-03-11T06:57:19.323Z,6.00
2019-03-11T06:59:51.346Z,6.73
2019-03-11T07:02:24.625Z,6.47
2019-03-11T07:04:57.678Z,5.30
2019-03-11T07:07:33.231Z,5.40
2019-03-11T07:10:08.974Z,4.70
2019-03-11T07:12:42.309Z,4.87
2019-03-11T07:15:16.601Z,4.53
2019-03-11T07:17:50.117Z,5.77
2019-03-11T07:20:23.512Z,5.50
2019-03-11T07:22:56.858Z,4.80
2019-03-11T07:25:30.730Z,5.10
2019-03-11T07:28:03.246Z,5.00
2019-03-11T07:30:36.752Z,4.67
2019-03-11T07:33:08.802Z,4.53
2019-03-11T07:35:42.509Z,4.90
2019-03-11T07:38:15.437Z,4.70
2019-03-11T07:40:47.652Z,4.60
2019-03-11T07:43:19.456Z,3.10
2019-03-11T07:45:51.108Z,4.20
2019-03-11T07:48:27.399Z,3.43
2019-03-11T07:51:02.119Z,3.17
2019-03-11T07:53:35.381Z,3.83
2019-03-11T07:56:08.370Z,3.60
2019-03-11T07:58:40.564Z,3.53
2019-03-11T08:01:13.626Z,2.77
2019-03-11T08:03:50.618Z,2.93
2019-03-11T08:06:21.663Z,2.70
2019-03-11T08:08:53.860Z,2.43
2019-03-11T08:11:40.202Z,1.93
2019-03-11T08:14:14.193Z,2.30
2019-03-11T08:16:46.103Z,2.37
2019-03-11T08:19:19.853Z,2.63
2019-03-11T08:21:55.510Z,2.50
2019-03-11T08:24:27.318Z,2.23
2019-03-11T08:26:58.870Z,2.37
2019-03-11T08:29:32.249Z,2.20
2019-03-11T08:32:04.822Z,2.30
2019-03-11T08:34:38.032Z,2.33
2019-03-11T08:37:09.793Z,2.17
2019-03-11T08:39:44.776Z,1.90
2019-03-11T08:42:16.644Z,2.50
2019-03-11T08:44:49.028Z,1.90
2019-03-11T08:47:22.493Z,1.90
2019-03-11T08:50:01.405Z,2.00
2019-03-11T08:52:35.141Z,1.60
2019-03-11T08:55:08.202Z,2.10
2019-03-11T08:57:43.159Z,2.00
2019-03-11T09:00:21.072Z,1.40
2019-03-11T09:02:53.144Z,2.00
2019-03-11T09:05:25.121Z,1.90
2019-03-11T09:07:58.218Z,2.37
2019-03-11T09:10:30.418Z,1.80
2019-03-11T09:13:02.179Z,1.70
2019-03-11T09:15:33.868Z,1.70
2019-03-11T09:18:08.454Z,1.60
2019-03-11T09:20:42.309Z,1.40
2019-03-11T09:23:15.959Z,1.40
2019-03-11T09:25:50.266Z,1.50
2019-03-11T09:28:22.118Z,1.33
2019-03-11T09:30:57.373Z,1.43
2019-03-11T09:33:31.523Z,2.10
2019-03-11T09:36:06.418Z,1.20
2019-03-11T09:38:40.937Z,1.70
2019-03-11T09:41:12.933Z,1.50
2019-03-11T09:43:45.024Z,1.60
2019-03-11T09:46:18.547Z,1.30
2019-03-11T09:48:50.279Z,1.10
2019-03-11T09:51:22.795Z,1.80
2019-03-11T09:53:54.976Z,1.60
2019-03-11T09:56:28.906Z,1.00
2019-03-11T09:59:00.954Z,1.40
2019-03-11T10:01:32.957Z,1.37
2019-03-11T10:04:05.949Z,1.43
2019-03-11T10:06:39.742Z,1.37
2019-03-11T10:09:11.765Z,1.30
2019-03-11T10:11:54.064Z,1.60
2019-03-11T10:14:26.302Z,1.23
2019-03-11T10:17:01.412Z,1.50
2019-03-11T10:19:33.734Z,2.23
2019-03-11T10:22:07.588Z,1.80
2019-03-11T10:24:39.699Z,1.30
2019-03-11T10:27:11.606Z,1.40
2019-03-11T10:29:44.286Z,2.40
2019-03-11T10:32:17.060Z,1.70
2019-03-11T10:34:49.070Z,1.50
2019-03-11T10:37:21.026Z,2.33
2019-03-11T10:39:52.790Z,1.70
2019-03-11T10:42:24.840Z,1.40
2019-03-11T10:44:56.696Z,3.73
2019-03-11T10:47:29.493Z,1.70
2019-03-11T10:50:03.260Z,1.30
2019-03-11T10:52:34.984Z,1.60
2019-03-11T10:55:07.184Z,1.97
2019-03-11T10:57:40.248Z,2.67
2019-03-11T11:00:14.961Z,1.60
2019-03-11T11:02:46.608Z,1.97
2019-03-11T11:05:18.468Z,1.73
2019-03-11T11:07:53.380Z,2.07
2019-03-11T11:10:25.695Z,1.83
2019-03-11T11:12:58.114Z,2.07
2019-03-11T11:15:31.081Z,2.17
2019-03-11T11:18:04.500Z,2.30
2019-03-11T11:20:36.327Z,2.00
2019-03-11T11:23:08.401Z,2.20
2019-03-11T11:25:43.162Z,2.03
2019-03-11T11:28:14.530Z,1.80
2019-03-11T11:30:46.606Z,1.90
2019-03-11T11:33:20.387Z,1.90
2019-03-11T11:35:53.213Z,2.23
2019-03-11T11:38:25.620Z,1.83
2019-03-11T11:40:58.486Z,3.47
2019-03-11T11:43:34.406Z,4.00
2019-03-11T11:46:06.418Z,2.70
2019-03-11T11:48:38.385Z,3.40
2019-03-11T11:51:10.763Z,4.43
2019-03-11T11:53:42.332Z,4.10
2019-03-11T11:56:14.318Z,3.60
2019-03-11T11:58:46.251Z,3.43
2019-03-11T12:01:18.604Z,3.30
2019-03-11T12:03:56.076Z,3.03
2019-03-11T12:06:28.639Z,3.03
2019-03-11T12:09:00.596Z,4.57
2019-03-11T12:11:40.464Z,3.27
2019-03-11T12:14:14.755Z,3.57
2019-03-11T12:16:48.253Z,3.73
2019-03-11T12:19:22.434Z,3.90
2019-03-11T12:21:55.668Z,7.70
2019-03-11T12:24:27.764Z,5.00
2019-03-11T12:26:59.830Z,4.33
2019-03-11T12:29:34.716Z,3.67
2019-03-11T12:32:06.967Z,3.33
2019-03-11T12:34:38.887Z,2.90
2019-03-11T12:37:13.828Z,3.43
2019-03-11T12:39:46.101Z,5.00
2019-03-11T12:42:18.031Z,3.93
2019-03-11T12:44:53.574Z,4.13
2019-03-11T12:47:24.545Z,3.63
2019-03-11T12:49:56.581Z,4.10
2019-03-11T12:52:30.726Z,2.90
2019-03-11T12:55:02.508Z,3.60
2019-03-11T12:57:34.796Z,2.50
2019-03-11T13:00:07.073Z,3.67
2019-03-11T13:02:39.144Z,3.67
2019-03-11T13:05:10.903Z,3.20
2019-03-11T13:07:42.676Z,3.40
2019-03-11T13:10:16.268Z,3.57
2019-03-11T13:12:48.606Z,3.10
2019-03-11T13:15:21.110Z,3.77
2019-03-11T13:17:55.612Z,3.43
2019-03-11T13:20:32.405Z,3.57
2019-03-11T13:23:04.194Z,3.07
2019-03-11T13:25:37.971Z,5.10
2019-03-11T13:28:10.889Z,4.60
2019-03-11T13:30:43.912Z,3.70
2019-03-11T13:33:19.014Z,3.90
2019-03-11T13:35:52.953Z,4.90
2019-03-11T13:38:25.087Z,5.37
2019-03-11T13:40:56.850Z,3.90
2019-03-11T13:43:30.126Z,2.77
2019-03-11T13:46:02.106Z,3.20
2019-03-11T13:48:35.405Z,3.00
2019-03-11T13:51:07.330Z,4.07
2019-03-11T13:53:39.139Z,3.13
2019-03-11T13:56:11.314Z,2.97
2019-03-11T13:58:44.286Z,3.87
2019-03-11T14:01:16.455Z,3.10
2019-03-11T14:03:48.860Z,2.87
2019-03-11T14:06:22.183Z,3.67
2019-03-11T14:08:54.224Z,3.97
2019-03-11T14:11:26.103Z,3.57
2019-03-11T14:13:58.798Z,4.33
2019-03-11T14:16:31.122Z,3.73
2019-03-11T14:19:03.579Z,3.00
2019-03-11T14:21:39.954Z,3.77
2019-03-11T14:24:12.078Z,4.30
2019-03-11T14:26:44.090Z,4.43
2019-03-11T14:29:16.416Z,7.67
2019-03-11T14:31:48.289Z,4.17
2019-03-11T14:34:22.742Z,3.80
2019-03-11T14:36:55.751Z,3.33
2019-03-11T14:39:30.197Z,3.53
2019-03-11T14:42:03.191Z,4.10
2019-03-11T14:44:35.260Z,4.47
2019-03-11T14:47:11.268Z,5.77
2019-03-11T14:49:43.171Z,5.07
2019-03-11T14:52:20.298Z,3.80
2019-03-11T14:54:52.187Z,4.80
2019-03-11T14:57:24.190Z,4.67
2019-03-11T14:59:56.164Z,3.20
2019-03-11T15:02:28.643Z,3.37
2019-03-11T15:05:00.314Z,4.10
2019-03-11T15:07:32.487Z,3.50
2019-03-11T15:10:04.042Z,3.87
2019-03-11T15:12:36.224Z,4.10
2019-03-11T15:15:09.445Z,3.57
2019-03-11T15:17:41.251Z,3.70
2019-03-11T15:20:13.629Z,4.70
2019-03-11T15:22:47.417Z,3.63
2019-03-11T15:25:19.874Z,3.80
2019-03-11T15:27:57.057Z,4.60
2019-03-11T15:30:29.267Z,3.37
2019-03-11T15:33:01.474Z,4.03
2019-03-11T15:35:37.005Z,3.97
2019-03-11T15:38:08.790Z,4.03
2019-03-11T15:40:40.861Z,3.07
2019-03-11T15:43:12.542Z,3.87
2019-03-11T15:45:47.491Z,3.63
2019-03-11T15:48:19.319Z,3.60
2019-03-11T15:50:52.799Z,3.60
2019-03-11T15:53:27.425Z,4.50
2019-03-11T15:56:03.072Z,4.83
2019-03-11T15:58:38.377Z,4.40
2019-03-11T16:01:10.533Z,4.10
2019-03-11T16:03:43.671Z,5.80
2019-03-11T16:06:17.134Z,3.80
2019-03-11T16:08:49.174Z,4.40
2019-03-11T16:11:30.343Z,4.37
2019-03-11T16:14:14.908Z,3.80
2019-03-11T16:16:46.835Z,3.57
2019-03-11T16:19:27.476Z,3.93
2019-03-11T16:22:00.569Z,3.93
2019-03-11T16:24:32.783Z,4.57
2019-03-11T16:27:04.646Z,5.33
2019-03-11T16:29:38.812Z,5.93
2019-03-11T16:32:15.766Z,6.13
2019-03-11T16:34:52.562Z,6.30
2019-03-11T16:37:25.571Z,8.47
2019-03-11T16:40:00.639Z,7.83
2019-03-11T16:42:33.498Z,8.13
2019-03-11T16:45:06.690Z,6.73
2019-03-11T16:47:41.774Z,6.80
2019-03-11T16:50:16.121Z,6.67
2019-03-11T16:52:49.985Z,7.03
2019-03-11T16:55:29.087Z,8.23
2019-03-11T16:58:04.002Z,7.17
2019-03-11T17:00:41.101Z,7.00
2019-03-11T17:03:13.423Z,5.97
2019-03-11T17:05:49.548Z,6.93
2019-03-11T17:08:24.304Z,7.57
2019-03-11T17:10:56.331Z,7.20
2019-03-11T17:13:28.792Z,8.67
2019-03-11T17:16:00.535Z,7.60
2019-03-11T17:18:34.665Z,8.07
2019-03-11T17:21:06.864Z,7.67
2019-03-11T17:23:38.680Z,7.03
2019-03-11T17:26:10.484Z,8.77
2019-03-11T17:28:42.626Z,9.37
2019-03-11T17:31:15.224Z,9.70
2019-03-11T17:33:47.906Z,9.83
2019-03-11T17:36:21.995Z,13.30
2019-03-11T17:38:54.152Z,10.23
2019-03-11T17:41:26.024Z,9.60
2019-03-11T17:44:05.845Z,10.80
2019-03-11T17:46:38.033Z,11.30
2019-03-11T17:49:10.356Z,10.23
2019-03-11T17:51:45.143Z,9.70
2019-03-11T17:54:22.403Z,9.00
2019-03-11T17:56:54.030Z,10.30
2019-03-11T17:59:27.752Z,10.50
2019-03-11T18:02:03.718Z,8.80
2019-03-11T18:04:36.249Z,9.43
2019-03-11T18:07:09.272Z,8.57
2019-03-11T18:09:45.151Z,8.63
2019-03-11T18:12:17.521Z,7.83
2019-03-11T18:14:49.232Z,10.93
2019-03-11T18:17:21.126Z,9.30
2019-03-11T18:19:53.270Z,10.03
2019-03-11T18:22:25.096Z,9.30
2019-03-11T18:24:56.783Z,8.87
2019-03-11T18:27:28.566Z,9.07
2019-03-11T18:30:01.299Z,5.80
2019-03-11T18:32:33.681Z,9.27
2019-03-11T18:35:05.867Z,10.33
2019-03-11T18:37:38.196Z,9.37
2019-03-11T18:40:11.450Z,8.57
2019-03-11T18:42:43.351Z,8.63
2019-03-11T18:45:15.258Z,9.47
2019-03-11T18:47:47.247Z,16.83
2019-03-11T18:50:20.477Z,10.23
2019-03-11T18:52:52.812Z,10.23
2019-03-11T18:55:25.259Z,10.80
2019-03-11T18:57:57.347Z,10.03
2019-03-11T19:00:31.418Z,9.20
2019-03-11T19:03:03.449Z,10.70
2019-03-11T19:05:36.434Z,11.23
2019-03-11T19:08:08.938Z,11.63
2019-03-11T19:10:40.794Z,10.97
2019-03-11T19:13:12.984Z,11.13
2019-03-11T19:15:44.891Z,9.87
2019-03-11T19:18:16.954Z,10.50
2019-03-11T19:20:48.734Z,10.40
2019-03-11T19:23:20.486Z,9.90
2019-03-11T19:25:52.477Z,10.63
2019-03-11T19:28:24.640Z,11.13
2019-03-11T19:30:56.779Z,10.73
2019-03-11T19:33:31.302Z,9.87
2019-03-11T19:36:03.601Z,12.23
2019-03-11T19:38:35.355Z,10.50
2019-03-11T19:41:07.428Z,10.53
2019-03-11T19:43:40.303Z,8.63
2019-03-11T19:46:13.487Z,12.93
2019-03-11T19:48:48.607Z,13.90
2019-03-11T19:51:22.845Z,12.80
2019-03-11T19:53:58.462Z,13.03
2019-03-11T19:56:30.397Z,13.77
2019-03-11T19:59:01.655Z,15.07
2019-03-11T20:01:34.262Z,14.63
2019-03-11T20:04:06.514Z,14.80
2019-03-11T20:06:38.492Z,15.57
2019-03-11T20:09:16.481Z,15.13
2019-03-11T20:11:48.320Z,15.03
2019-03-11T20:14:24.643Z,16.10
2019-03-11T20:16:56.823Z,15.90
2019-03-11T20:19:28.931Z,15.40
2019-03-11T20:22:01.112Z,16.40
2019-03-11T20:24:32.955Z,19.17
2019-03-11T20:27:04.790Z,14.67
2019-03-11T20:29:36.561Z,18.27
2019-03-11T20:32:08.548Z,15.13
2019-03-11T20:34:51.484Z,18.07
2019-03-11T20:37:23.305Z,18.17
2019-03-11T20:39:55.396Z,18.83
2019-03-11T20:42:29.811Z,13.43
2019-03-11T20:45:01.853Z,15.10
2019-03-11T20:47:33.964Z,13.33
2019-03-11T20:50:08.721Z,15.63
2019-03-11T20:52:43.811Z,14.83
2019-03-11T20:55:15.875Z,17.17
2019-03-11T20:57:49.213Z,13.93
2019-03-11T21:00:22.935Z,18.53
2019-03-11T21:02:56.343Z,18.70
2019-03-11T21:05:28.692Z,18.17
2019-03-11T21:08:03.609Z,17.57
2019-03-11T21:10:38.279Z,15.97
2019-03-11T21:13:11.499Z,17.43
2019-03-11T21:15:45.482Z,13.67
2019-03-11T21:18:18.029Z,17.63
2019-03-11T21:21:03.745Z,16.40
2019-03-11T21:23:26.597Z,16.43
2019-03-11T21:25:58.637Z,14.60
2019-03-11T21:28:31.372Z,16.13
2019-03-11T21:31:03.243Z,16.37
2019-03-11T21:33:35.118Z,16.27
2019-03-11T21:36:07.139Z,13.27
2019-03-11T21:38:39.476Z,14.87
2019-03-11T21:41:11.397Z,16.90
2019-03-11T21:43:45.252Z,16.77
2019-03-11T21:46:20.509Z,16.60
2019-03-11T21:48:53.467Z,16.50
2019-03-11T21:51:26.258Z,17.93
2019-03-11T21:54:00.415Z,12.50
2019-03-11T21:56:32.412Z,17.40
2019-03-11T21:59:04.707Z,14.63
2019-03-11T22:01:36.503Z,16.50
2019-03-11T22:04:09.211Z,16.83
2019-03-11T22:06:42.429Z,17.93
2019-03-11T22:09:14.392Z,16.50
2019-03-11T22:11:46.207Z,19.87
2019-03-11T22:14:18.391Z,16.43
2019-03-11T22:17:02.959Z,17.77
2019-03-11T22:19:34.730Z,18.73
2019-03-11T22:22:06.607Z,17.40
2019-03-11T22:24:38.395Z,16.60
2019-03-11T22:27:11.659Z,18.30
2019-03-11T22:29:44.982Z,8.43
2019-03-11T22:32:17.146Z,14.90
2019-03-11T22:34:50.999Z,19.60
2019-03-11T22:37:22.816Z,19.23
2019-03-11T22:39:56.403Z,17.80
2019-03-11T22:42:28.405Z,10.23
2019-03-11T22:45:00.900Z,18.53
2019-03-11T22:47:32.970Z,12.77
2019-03-11T22:50:04.829Z,20.73
2019-03-11T22:52:36.751Z,19.53
2019-03-11T22:55:08.554Z,20.03
2019-03-11T22:57:40.786Z,13.27
2019-03-11T23:00:20.824Z,17.27
2019-03-11T23:02:52.595Z,19.30
2019-03-11T23:05:26.368Z,14.67
2019-03-11T23:07:58.224Z,19.70
2019-03-11T23:10:29.989Z,17.47
2019-03-11T23:13:02.856Z,18.43
2019-03-11T23:15:35.740Z,20.97
2019-03-11T23:18:07.423Z,20.60
2019-03-11T23:20:52.252Z,21.23
2019-03-11T23:23:24.606Z,19.13
2019-03-11T23:25:56.639Z,20.57
2019-03-11T23:28:28.450Z,19.53
2019-03-11T23:31:00.296Z,15.93
2019-03-11T23:33:32.062Z,21.10
2019-03-11T23:36:06.964Z,21.53
2019-03-11T23:38:37.413Z,12.20
2019-03-11T23:41:09.330Z,19.47
2019-03-11T23:43:41.279Z,20.57
2019-03-11T23:46:13.192Z,20.60
2019-03-11T23:48:45.296Z,15.40
2019-03-11T23:51:17.153Z,20.63
2019-03-11T23:53:49.123Z,20.40
2019-03-11T23:56:20.943Z,19.50
2019-03-11T23:58:52.707Z,19.83
